createdAt,value
2022-11-18T00:01:22.186Z,100.00
2022-11-18T00:03:49.577Z,100.00
2022-11-18T00:06:22.343Z,100.00
2022-11-18T00:08:49.347Z,100.00
2022-11-18T00:11:37.564Z,100.00
2022-11-18T00:14:21.316Z,100.00
2022-11-18T00:16:50.973Z,100.00
2022-11-18T00:19:18.980Z,100.00
2022-11-18T00:21:46.154Z,100.00
2022-11-18T00:24:12.829Z,100.00
2022-11-18T00:26:39.544Z,100.00
2022-11-18T00:29:06.269Z,100.00
2022-11-18T00:31:33.016Z,100.00
2022-11-18T00:33:59.698Z,100.00
2022-11-18T00:36:26.406Z,100.00
2022-11-18T00:38:53.689Z,100.00
2022-11-18T00:41:20.574Z,100.00
2022-11-18T00:43:47.290Z,100.00
2022-11-18T00:46:13.986Z,100.00
2022-11-18T00:48:41.051Z,100.00
2022-11-18T00:51:18.611Z,100.00
2022-11-18T00:53:45.724Z,100.00
2022-11-18T00:56:12.482Z,100.00
2022-11-18T00:58:39.168Z,100.00
2022-11-18T01:01:06.171Z,100.00
2022-11-18T01:03:33.121Z,100.00
2022-11-18T01:05:59.767Z,100.00
2022-11-18T01:08:26.484Z,100.00
2022-11-18T01:10:53.695Z,100.00
2022-11-18T01:13:23.840Z,100.00
2022-11-18T01:16:00.363Z,100.00
2022-11-18T01:18:30.513Z,100.00
2022-11-18T01:21:02.069Z,100.00
2022-11-18T01:23:28.767Z,100.00
2022-11-18T01:25:55.900Z,100.00
2022-11-18T01:28:24.062Z,100.00
2022-11-18T01:30:51.264Z,100.00
2022-11-18T01:33:17.956Z,100.00
2022-11-18T01:35:44.819Z,100.00
2022-11-18T01:38:14.210Z,100.00
2022-11-18T01:40:41.414Z,100.00
2022-11-18T01:43:16.672Z,100.00
2022-11-18T01:45:45.717Z,100.00
2022-11-18T01:48:34.119Z,100.00
2022-11-18T01:51:10.953Z,100.00
2022-11-18T01:53:41.893Z,100.00
2022-11-18T01:56:14.458Z,100.00
2022-11-18T01:58:50.149Z,100.00
2022-11-18T02:01:17.019Z,100.00
2022-11-18T02:03:45.726Z,100.00
2022-11-18T02:06:13.745Z,100.00
2022-11-18T02:08:41.740Z,100.00
2022-11-18T02:11:33.609Z,100.00
2022-11-18T02:14:03.855Z,100.00
2022-11-18T02:16:52.331Z,100.00
2022-11-18T02:19:47.016Z,100.00
2022-11-18T02:22:39.700Z,100.00
2022-11-18T02:25:15.260Z,100.00
2022-11-18T02:28:03.153Z,100.00
2022-11-18T02:30:33.966Z,100.00
2022-11-18T02:33:08.820Z,100.00
2022-11-18T02:35:46.729Z,100.00
2022-11-18T02:38:23.468Z,100.00
2022-11-18T02:40:58.471Z,100.00
2022-11-18T02:43:31.076Z,100.00
2022-11-18T02:46:02.837Z,100.00
2022-11-18T02:48:33.817Z,100.00
2022-11-18T02:51:03.289Z,100.00
2022-11-18T02:53:32.054Z,100.00
2022-11-18T02:56:00.313Z,100.00
2022-11-18T02:58:27.022Z,100.00
2022-11-18T03:00:59.089Z,100.00
2022-11-18T03:03:31.912Z,100.00
2022-11-18T03:06:08.070Z,100.00
2022-11-18T03:08:58.784Z,100.00
2022-11-18T03:11:29.513Z,100.00
2022-11-18T03:14:26.337Z,100.00
2022-11-18T03:17:00.761Z,100.00
2022-11-18T03:19:42.621Z,100.00
2022-11-18T03:22:15.264Z,100.00
2022-11-18T03:24:51.605Z,100.00
2022-11-18T03:27:31.340Z,100.00
2022-11-18T03:30:04.766Z,100.00
2022-11-18T03:32:36.369Z,100.00
2022-11-18T03:35:20.574Z,100.00
2022-11-18T03:37:50.647Z,100.00
2022-11-18T03:40:26.506Z,100.00
2022-11-18T03:43:24.774Z,100.00
2022-11-18T03:45:56.654Z,100.00
2022-11-18T03:48:28.644Z,100.00
2022-11-18T03:51:01.364Z,100.00
2022-11-18T03:53:32.773Z,100.00
2022-11-18T03:56:17.610Z,100.00
2022-11-18T03:58:57.173Z,100.00
2022-11-18T04:01:57.993Z,99.46
2022-11-18T04:04:26.432Z,98.33
2022-11-18T04:07:32.532Z,97.57
2022-11-18T04:10:14.170Z,98.81
2022-11-18T04:12:53.041Z,98.67
2022-11-18T04:15:19.939Z,98.61
2022-11-18T04:17:46.586Z,97.63
2022-11-18T04:20:17.072Z,97.81
2022-11-18T04:22:44.321Z,97.81
2022-11-18T04:25:11.427Z,98.65
2022-11-18T04:27:38.414Z,99.65
2022-11-18T04:30:06.409Z,99.47
2022-11-18T04:32:33.418Z,100.00
2022-11-18T04:35:00.084Z,97.67
2022-11-18T04:37:26.901Z,97.69
2022-11-18T04:39:53.606Z,98.30
2022-11-18T04:42:20.251Z,98.52
2022-11-18T04:44:46.887Z,98.68
2022-11-18T04:47:13.707Z,100.00
2022-11-18T04:49:40.442Z,100.00
2022-11-18T04:52:07.263Z,100.00
2022-11-18T04:54:33.940Z,100.00
2022-11-18T04:57:00.637Z,100.00
2022-11-18T04:59:29.249Z,100.00
2022-11-18T05:01:57.106Z,100.00
2022-11-18T05:04:26.254Z,100.00
2022-11-18T05:06:53.441Z,100.00
2022-11-18T05:09:20.561Z,100.00
2022-11-18T05:12:05.865Z,99.92
2022-11-18T05:14:33.060Z,100.00
2022-11-18T05:17:01.529Z,100.00
2022-11-18T05:19:28.326Z,100.00
2022-11-18T05:21:55.446Z,100.00
2022-11-18T05:24:24.168Z,100.00
2022-11-18T05:26:54.776Z,100.00
2022-11-18T05:29:22.017Z,100.00
2022-11-18T05:31:49.332Z,100.00
2022-11-18T05:34:17.426Z,100.00
2022-11-18T05:36:44.346Z,100.00
2022-11-18T05:39:11.001Z,100.00
2022-11-18T05:41:56.451Z,100.00
2022-11-18T05:44:23.049Z,100.00
2022-11-18T05:46:49.712Z,100.00
2022-11-18T05:49:16.746Z,100.00
2022-11-18T05:51:43.633Z,100.00
2022-11-18T05:54:14.301Z,100.00
2022-11-18T05:56:47.852Z,100.00
2022-11-18T05:59:14.877Z,100.00
2022-11-18T06:01:48.025Z,100.00
2022-11-18T06:04:26.634Z,100.00
2022-11-18T06:06:58.931Z,100.00
2022-11-18T06:09:30.960Z,100.00
2022-11-18T06:12:00.675Z,100.00
2022-11-18T06:14:48.612Z,100.00
2022-11-18T06:17:22.911Z,100.00
2022-11-18T06:19:49.800Z,100.00
2022-11-18T06:22:16.593Z,100.00
2022-11-18T06:24:44.257Z,100.00
2022-11-18T06:27:11.961Z,100.00
2022-11-18T06:29:38.618Z,100.00
2022-11-18T06:32:05.606Z,100.00
2022-11-18T06:34:35.618Z,100.00
2022-11-18T06:37:17.877Z,100.00
2022-11-18T06:39:44.574Z,100.00
2022-11-18T06:42:11.865Z,100.00
2022-11-18T06:44:38.557Z,100.00
2022-11-18T06:47:05.501Z,100.00
2022-11-18T06:49:32.220Z,100.00
2022-11-18T06:51:58.892Z,100.00
2022-11-18T06:54:25.548Z,100.00
2022-11-18T06:56:52.273Z,100.00
2022-11-18T06:59:23.671Z,100.00
2022-11-18T07:01:51.781Z,100.00
2022-11-18T07:04:18.473Z,100.00
2022-11-18T07:06:45.137Z,100.00
2022-11-18T07:09:11.971Z,100.00
2022-11-18T07:11:41.218Z,100.00
2022-11-18T07:14:09.096Z,100.00
2022-11-18T07:16:36.721Z,100.00
2022-11-18T07:19:09.975Z,100.00
2022-11-18T07:21:37.154Z,100.00
2022-11-18T07:24:07.093Z,100.00
2022-11-18T07:26:35.035Z,100.00
2022-11-18T07:29:02.003Z,99.47
2022-11-18T07:31:28.680Z,98.60
2022-11-18T07:33:55.726Z,97.83
2022-11-18T07:36:29.659Z,98.97
2022-11-18T07:39:00.335Z,97.84
2022-11-18T07:41:29.609Z,97.88
2022-11-18T07:44:00.690Z,97.43
2022-11-18T07:46:32.120Z,98.69
2022-11-18T07:49:01.005Z,98.38
2022-11-18T07:51:30.467Z,98.91
2022-11-18T07:53:57.373Z,97.18
2022-11-18T07:56:24.156Z,97.18
2022-11-18T07:58:55.503Z,97.52
2022-11-18T08:01:29.130Z,98.13
2022-11-18T08:03:56.357Z,94.98
2022-11-18T08:06:23.366Z,94.47
2022-11-18T08:08:50.225Z,94.13
2022-11-18T08:11:22.644Z,94.48
2022-11-18T08:13:51.525Z,92.74
2022-11-18T08:16:21.669Z,93.27
2022-11-18T08:18:48.808Z,91.39
2022-11-18T08:21:18.330Z,90.51
2022-11-18T08:23:50.547Z,88.23
2022-11-18T08:26:17.307Z,81.70
2022-11-18T08:28:45.112Z,78.69
2022-11-18T08:31:14.022Z,77.34
2022-11-18T08:33:41.172Z,77.64
2022-11-18T08:36:16.782Z,80.16
2022-11-18T08:38:44.124Z,79.33
2022-11-18T08:41:25.625Z,82.04
2022-11-18T08:43:52.306Z,80.92
2022-11-18T08:46:20.025Z,82.88
2022-11-18T08:48:46.811Z,83.14
2022-11-18T08:51:13.904Z,85.53
2022-11-18T08:53:40.619Z,84.46
2022-11-18T08:56:08.000Z,83.19
2022-11-18T08:58:34.626Z,86.66
2022-11-18T09:01:08.271Z,84.52
2022-11-18T09:03:35.297Z,82.72
2022-11-18T09:06:10.249Z,82.39
2022-11-18T09:08:37.556Z,78.86
2022-11-18T09:11:13.661Z,78.85
2022-11-18T09:14:04.311Z,78.47
2022-11-18T09:16:29.784Z,81.99
2022-11-18T09:18:57.327Z,79.78
2022-11-18T09:21:24.712Z,78.25
2022-11-18T09:23:51.683Z,78.61
2022-11-18T09:26:20.998Z,80.32
2022-11-18T09:28:47.670Z,79.35
2022-11-18T09:31:16.606Z,80.11
2022-11-18T09:33:43.699Z,79.79
2022-11-18T09:36:22.583Z,81.88
2022-11-18T09:38:53.165Z,84.44
2022-11-18T09:41:46.365Z,82.70
2022-11-18T09:44:33.340Z,80.07
2022-11-18T09:47:08.875Z,78.74
2022-11-18T09:49:38.696Z,73.90
2022-11-18T09:52:14.130Z,76.94
2022-11-18T09:54:41.351Z,75.95
2022-11-18T09:57:49.178Z,73.23
2022-11-18T10:00:24.193Z,73.91
2022-11-18T10:02:55.071Z,75.42
2022-11-18T10:05:27.863Z,76.23
2022-11-18T10:07:54.501Z,76.44
2022-11-18T10:10:30.466Z,77.84
2022-11-18T10:13:27.648Z,78.24
2022-11-18T10:16:03.733Z,78.40
2022-11-18T10:19:00.401Z,78.70
2022-11-18T10:22:09.947Z,78.26
2022-11-18T10:24:45.004Z,77.82
2022-11-18T10:27:15.108Z,77.64
2022-11-18T10:29:43.083Z,79.06
2022-11-18T10:32:18.294Z,77.83
2022-11-18T10:34:54.606Z,79.66
2022-11-18T10:38:00.329Z,80.54
2022-11-18T10:40:29.487Z,80.01
2022-11-18T10:42:56.219Z,79.41
2022-11-18T10:45:22.786Z,79.85
2022-11-18T10:47:59.711Z,81.05
2022-11-18T10:50:28.925Z,81.30
2022-11-18T10:52:55.634Z,81.86
2022-11-18T10:55:29.187Z,82.31
2022-11-18T10:58:03.009Z,81.68
2022-11-18T11:00:44.944Z,82.39
2022-11-18T11:03:59.026Z,81.96
2022-11-18T11:06:35.229Z,83.55
2022-11-18T11:09:22.432Z,81.54
2022-11-18T11:12:04.444Z,81.37
2022-11-18T11:14:51.599Z,80.58
2022-11-18T11:17:39.140Z,83.28
2022-11-18T11:20:20.495Z,80.73
2022-11-18T11:22:47.242Z,80.78
2022-11-18T11:25:17.846Z,79.08
2022-11-18T11:31:19.030Z,79.78
2022-11-18T11:33:54.191Z,85.32
2022-11-18T11:37:02.235Z,87.51
2022-11-18T11:39:59.128Z,86.56
2022-11-18T11:42:35.793Z,85.82
2022-11-18T11:45:27.187Z,85.62
2022-11-18T11:48:09.073Z,84.07
2022-11-18T11:51:05.166Z,90.77
2022-11-18T11:54:09.111Z,89.83
2022-11-18T11:56:48.701Z,87.14
2022-11-18T11:59:38.921Z,84.74
2022-11-18T12:02:31.827Z,80.42
2022-11-18T12:05:08.857Z,81.27
2022-11-18T12:07:57.194Z,81.10
2022-11-18T12:10:30.030Z,79.17
2022-11-18T12:13:23.042Z,87.21
2022-11-18T12:16:20.994Z,86.41
2022-11-18T12:18:56.350Z,86.03
2022-11-18T12:21:46.053Z,82.53
2022-11-18T12:24:31.321Z,85.03
2022-11-18T12:27:05.366Z,86.05
2022-11-18T12:29:55.188Z,86.57
2022-11-18T12:32:43.610Z,88.32
2022-11-18T12:35:13.300Z,90.75
2022-11-18T12:37:57.518Z,89.92
2022-11-18T12:40:53.515Z,89.82
2022-11-18T12:43:44.791Z,90.52
2022-11-18T12:46:29.905Z,89.76
2022-11-18T12:48:56.854Z,89.62
2022-11-18T12:51:24.726Z,86.90
2022-11-18T12:53:52.417Z,87.51
2022-11-18T12:56:19.103Z,86.42
2022-11-18T12:58:51.343Z,89.82
2022-11-18T13:01:21.546Z,88.87
2022-11-18T13:03:48.244Z,87.03
2022-11-18T13:06:23.455Z,87.18
2022-11-18T13:08:57.940Z,85.43
2022-11-18T13:11:46.107Z,85.39
2022-11-18T13:14:37.660Z,84.10
2022-11-18T13:17:41.612Z,83.24
2022-11-18T13:20:37.176Z,82.17
2022-11-18T13:23:56.207Z,81.20
2022-11-18T13:26:29.271Z,82.31
2022-11-18T13:29:17.965Z,79.06
2022-11-18T13:32:03.418Z,77.63
2022-11-18T13:34:32.007Z,76.94
2022-11-18T13:37:00.735Z,79.18
2022-11-18T13:39:32.982Z,80.05
2022-11-18T13:42:06.241Z,81.07
2022-11-18T13:44:37.860Z,80.50
2022-11-18T13:47:38.508Z,81.54
2022-11-18T13:50:10.997Z,79.40
2022-11-18T13:52:56.622Z,81.93
2022-11-18T13:55:26.774Z,79.61
2022-11-18T13:58:03.204Z,79.75
2022-11-18T14:00:32.760Z,80.36
2022-11-18T14:03:22.492Z,78.77
2022-11-18T14:05:56.218Z,78.91
2022-11-18T14:08:37.330Z,77.58
2022-11-18T14:11:07.979Z,76.93
2022-11-18T14:13:48.275Z,76.64
2022-11-18T14:16:17.899Z,77.53
2022-11-18T14:18:50.036Z,78.46
2022-11-18T14:21:27.181Z,78.30
2022-11-18T14:23:54.307Z,80.21
2022-11-18T14:26:30.576Z,80.58
2022-11-18T14:29:03.300Z,84.53
2022-11-18T14:31:31.998Z,82.47
2022-11-18T14:34:21.195Z,83.14
2022-11-18T14:36:49.312Z,83.90
2022-11-18T14:39:27.750Z,83.63
2022-11-18T14:41:55.253Z,85.98
2022-11-18T14:44:24.396Z,85.02
2022-11-18T14:46:59.744Z,86.12
2022-11-18T14:49:28.084Z,85.84
2022-11-18T14:51:55.221Z,84.98
2022-11-18T14:54:26.975Z,85.23
2022-11-18T14:57:01.000Z,87.59
2022-11-18T14:59:28.156Z,90.57
2022-11-18T15:01:56.540Z,90.56
2022-11-18T15:04:23.696Z,88.88
2022-11-18T15:06:50.387Z,89.55
2022-11-18T15:09:17.123Z,90.33
2022-11-18T15:11:44.791Z,91.82
2022-11-18T15:14:11.582Z,89.98
2022-11-18T15:16:38.229Z,92.26
2022-11-18T15:19:06.568Z,94.91
2022-11-18T15:21:33.658Z,100.00
2022-11-18T15:24:00.309Z,100.00
2022-11-18T15:26:35.767Z,100.00
2022-11-18T15:29:02.539Z,100.00
2022-11-18T15:31:29.354Z,100.00
2022-11-18T15:33:56.043Z,100.00
2022-11-18T15:36:27.163Z,96.51
2022-11-18T15:38:54.948Z,97.00
2022-11-18T15:41:25.295Z,96.09
2022-11-18T15:43:53.247Z,98.13
2022-11-18T15:46:22.681Z,96.61
2022-11-18T15:48:56.459Z,96.22
2022-11-18T15:51:24.434Z,95.81
2022-11-18T15:53:51.160Z,95.22
2022-11-18T15:56:23.651Z,94.27
2022-11-18T15:59:04.800Z,95.27
2022-11-18T16:01:34.570Z,94.21
2022-11-18T16:04:01.706Z,92.42
2022-11-18T16:06:28.443Z,94.05
2022-11-18T16:08:59.480Z,94.06
2022-11-18T16:11:46.363Z,95.33
2022-11-18T16:14:14.544Z,95.93
2022-11-18T16:16:42.891Z,95.90
2022-11-18T16:19:11.887Z,95.74
2022-11-18T16:21:47.019Z,95.58
2022-11-18T16:24:25.530Z,95.48
2022-11-18T16:26:52.840Z,95.30
2022-11-18T16:29:21.097Z,96.83
2022-11-18T16:31:52.891Z,96.05
2022-11-18T16:34:22.489Z,95.46
2022-11-18T16:36:52.196Z,95.20
2022-11-18T16:39:25.056Z,95.44
2022-11-18T16:41:54.063Z,94.79
2022-11-18T16:44:20.905Z,95.29
2022-11-18T16:46:57.838Z,95.41
2022-11-18T16:49:26.523Z,98.23
2022-11-18T16:51:55.017Z,98.19
2022-11-18T16:54:25.212Z,98.71
2022-11-18T16:56:53.908Z,100.00
2022-11-18T16:59:24.710Z,99.34
2022-11-18T17:01:53.145Z,99.15
2022-11-18T17:04:20.887Z,99.82
2022-11-18T17:06:48.011Z,99.77
2022-11-18T17:09:17.550Z,99.16
2022-11-18T17:11:45.060Z,100.00
2022-11-18T17:14:12.386Z,100.00
2022-11-18T17:16:39.224Z,100.00
2022-11-18T17:19:16.756Z,98.46
2022-11-18T17:21:44.354Z,97.80
2022-11-18T17:24:13.322Z,97.04
2022-11-18T17:26:40.271Z,97.16
2022-11-18T17:29:07.427Z,95.60
2022-11-18T17:31:34.125Z,94.99
2022-11-18T17:34:00.817Z,95.27
2022-11-18T17:36:27.861Z,95.63
2022-11-18T17:38:59.038Z,95.22
2022-11-18T17:41:45.464Z,95.30
2022-11-18T17:44:14.587Z,94.98
2022-11-18T17:46:41.855Z,94.36
2022-11-18T17:49:14.151Z,96.19
2022-11-18T17:51:41.642Z,97.16
2022-11-18T17:54:09.737Z,97.75
2022-11-18T17:56:36.415Z,97.11
2022-11-18T17:59:03.166Z,98.64
2022-11-18T18:01:30.005Z,99.21
2022-11-18T18:03:56.859Z,99.52
2022-11-18T18:06:23.773Z,100.00
2022-11-18T18:08:55.189Z,99.23
2022-11-18T18:11:21.836Z,99.05
2022-11-18T18:14:07.046Z,98.89
2022-11-18T18:16:34.096Z,99.52
2022-11-18T18:19:02.538Z,99.00
2022-11-18T18:21:29.275Z,99.58
2022-11-18T18:23:56.065Z,99.36
2022-11-18T18:26:28.160Z,99.96
2022-11-18T18:28:59.028Z,100.00
2022-11-18T18:31:26.678Z,98.98
2022-11-18T18:33:53.566Z,99.77
2022-11-18T18:36:21.322Z,99.69
2022-11-18T18:38:48.277Z,99.39
2022-11-18T18:41:17.687Z,99.19
2022-11-18T18:43:46.431Z,99.15
2022-11-18T18:46:32.419Z,99.45
2022-11-18T18:49:09.403Z,99.44
2022-11-18T18:51:37.429Z,99.48
2022-11-18T18:54:04.818Z,99.73
2022-11-18T18:56:32.946Z,99.79
2022-11-18T18:59:00.257Z,100.00
2022-11-18T19:01:28.025Z,100.00
2022-11-18T19:03:57.337Z,100.00
2022-11-18T19:09:16.320Z,100.00
2022-11-18T19:12:01.738Z,100.00
2022-11-18T19:14:28.510Z,100.00
2022-11-18T19:16:56.205Z,100.00
2022-11-18T19:19:43.630Z,100.00
2022-11-18T19:22:13.335Z,100.00
2022-11-18T19:24:50.074Z,100.00
2022-11-18T19:27:18.269Z,100.00
2022-11-18T19:29:45.042Z,100.00
2022-11-18T19:32:11.783Z,100.00
2022-11-18T19:34:38.708Z,100.00
2022-11-18T19:37:05.378Z,100.00
2022-11-18T19:39:32.008Z,100.00
2022-11-18T19:41:58.885Z,100.00
2022-11-18T19:44:25.654Z,100.00
2022-11-18T19:46:52.364Z,100.00
2022-11-18T19:49:19.216Z,100.00
2022-11-18T19:51:47.021Z,100.00
2022-11-18T19:54:13.711Z,100.00
2022-11-18T19:56:40.413Z,100.00
2022-11-18T19:59:07.022Z,100.00
2022-11-18T20:01:33.809Z,100.00
2022-11-18T20:04:05.659Z,100.00
2022-11-18T20:06:34.803Z,100.00
2022-11-18T20:09:02.631Z,100.00
2022-11-18T20:11:29.542Z,100.00
2022-11-18T20:13:56.396Z,100.00
2022-11-18T20:16:24.769Z,100.00
2022-11-18T20:19:17.351Z,100.00
2022-11-18T20:21:44.149Z,100.00
2022-11-18T20:24:15.902Z,100.00
2022-11-18T20:26:43.460Z,100.00
2022-11-18T20:29:10.482Z,100.00
2022-11-18T20:31:37.559Z,100.00
2022-11-18T20:34:05.327Z,100.00
2022-11-18T20:36:35.518Z,100.00
2022-11-18T20:39:05.646Z,100.00
2022-11-18T20:41:32.673Z,100.00
2022-11-18T20:44:00.393Z,100.00
2022-11-18T20:46:27.508Z,100.00
2022-11-18T20:48:54.639Z,100.00
2022-11-18T20:51:23.632Z,100.00
2022-11-18T20:53:51.299Z,100.00
2022-11-18T20:56:20.110Z,100.00
2022-11-18T20:58:47.444Z,100.00
2022-11-18T21:01:16.630Z,100.00
2022-11-18T21:03:48.052Z,100.00
2022-11-18T21:06:15.155Z,100.00
2022-11-18T21:08:42.845Z,100.00
2022-11-18T21:11:12.346Z,100.00
2022-11-18T21:13:58.944Z,100.00
2022-11-18T21:16:27.131Z,100.00
2022-11-18T21:18:53.788Z,100.00
2022-11-18T21:21:38.625Z,100.00
2022-11-18T21:24:06.843Z,100.00
2022-11-18T21:26:35.136Z,100.00
2022-11-18T21:29:04.864Z,100.00
2022-11-18T21:31:32.291Z,100.00
2022-11-18T21:33:59.296Z,100.00
2022-11-18T21:36:27.595Z,100.00
2022-11-18T21:38:54.805Z,100.00
2022-11-18T21:41:21.424Z,100.00
2022-11-18T21:44:05.181Z,100.00
2022-11-18T21:46:34.276Z,100.00
2022-11-18T21:49:01.280Z,100.00
2022-11-18T21:51:28.086Z,100.00
2022-11-18T21:53:54.796Z,100.00
2022-11-18T21:56:25.141Z,100.00
2022-11-18T21:58:52.569Z,100.00
2022-11-18T22:01:20.981Z,100.00
2022-11-18T22:03:55.019Z,100.00
2022-11-18T22:06:24.254Z,100.00
2022-11-18T22:08:51.564Z,100.00
2022-11-18T22:11:18.568Z,100.00
2022-11-18T22:13:45.247Z,100.00
2022-11-18T22:16:15.362Z,100.00
2022-11-18T22:18:44.506Z,100.00
2022-11-18T22:21:29.028Z,100.00
2022-11-18T22:24:00.711Z,100.00
2022-11-18T22:26:28.362Z,100.00
2022-11-18T22:28:56.880Z,100.00
2022-11-18T22:31:25.517Z,100.00
2022-11-18T22:33:52.551Z,100.00
2022-11-18T22:36:21.799Z,100.00
2022-11-18T22:38:48.841Z,100.00
2022-11-18T22:41:37.987Z,100.00
2022-11-18T22:44:08.050Z,100.00
2022-11-18T22:46:39.763Z,100.00
2022-11-18T22:49:07.630Z,100.00
2022-11-18T22:51:36.798Z,100.00
2022-11-18T22:56:52.975Z,100.00
2022-11-18T22:59:19.769Z,100.00
2022-11-18T23:01:46.504Z,100.00
2022-11-18T23:04:13.151Z,100.00
2022-11-18T23:06:39.797Z,100.00
2022-11-18T23:09:06.499Z,100.00
2022-11-18T23:11:51.801Z,100.00
2022-11-18T23:14:18.461Z,100.00
2022-11-18T23:16:45.261Z,100.00
2022-11-18T23:19:15.013Z,100.00
2022-11-18T23:21:42.815Z,100.00
2022-11-18T23:24:17.741Z,100.00
2022-11-18T23:26:45.275Z,100.00
2022-11-18T23:29:13.414Z,100.00
2022-11-18T23:31:42.807Z,100.00
2022-11-18T23:34:11.863Z,100.00
2022-11-18T23:36:38.996Z,100.00
2022-11-18T23:39:06.020Z,100.00
2022-11-18T23:41:32.972Z,100.00
2022-11-18T23:43:59.758Z,100.00
2022-11-18T23:46:27.683Z,100.00
2022-11-18T23:48:54.805Z,100.00
2022-11-18T23:51:22.896Z,100.00
2022-11-18T23:53:54.916Z,100.00
2022-11-18T23:56:23.558Z,100.00
2022-11-18T23:58:52.388Z,100.00
